Time;durP1;ratioP1;P1;durP2;ratioP2;P2;SDS_P1;SDS_P2;PMS_P1;PMS_P2;Temp;Humidity;BMP_temperature;BMP_pressure;BME280_temperature;BME280_humidity;BME280_pressure;Samples;Min_cycle;Max_cycle;Signal;HPM_P1;HPM_P2
2022/06/22 00:02:01;;;;;;;10.48;3.88;;;;;;;23.06;53.77;95880.94;4994492;28;20050;-60
2022/06/22 00:04:32;;;;;;;6.60;3.90;;;;;;;23.08;53.62;95895.78;4994596;28;20046;-60
2022/06/22 00:07:04;;;;;;;10.18;4.30;;;;;;;23.00;53.86;95887.72;4994515;28;20101;-60
2022/06/22 00:09:34;;;;;;;6.60;4.00;;;;;;;22.91;54.22;95891.31;4994478;28;20077;-60
2022/06/22 00:12:02;;;;;;;7.88;3.90;;;;;;;22.80;54.76;95889.69;4994447;28;20439;-60
2022/06/22 00:14:37;;;;;;;10.38;4.57;;;;;;;22.66;54.98;95899.06;4994106;28;20104;-59
2022/06/22 00:17:05;;;;;;;10.60;4.30;;;;;;;22.59;55.50;95889.00;4994405;28;20562;-60
2022/06/22 00:19:36;;;;;;;9.00;4.25;;;;;;;22.57;55.80;95898.06;4994384;28;20126;-60
2022/06/22 00:22:04;;;;;;;11.98;4.38;;;;;;;22.45;56.50;95897.44;4994309;28;20048;-60
2022/06/22 00:24:42;;;;;;;10.82;4.40;;;;;;;22.38;56.68;95894.53;4994297;28;20054;-61
2022/06/22 00:27:28;;;;;;;11.57;4.40;;;;;;;22.30;56.88;95892.59;4993591;28;20104;-60
2022/06/22 00:30:29;;;;;;;9.30;4.57;;;;;;;22.09;57.63;95892.84;4993834;28;20385;-60
2022/06/22 00:33:01;;;;;;;;;;;;;;;21.90;58.38;95894.59;4994465;28;20046;-60
2022/06/22 00:35:56;;;;;;;7.20;4.40;;;;;;;21.68;59.08;95899.25;4994029;28;20331;-60
2022/06/22 00:38:28;;;;;;;10.10;4.82;;;;;;;21.39;59.83;95889.50;4993969;28;20571;-59
2022/06/22 00:40:58;;;;;;;7.22;4.18;;;;;;;21.21;60.21;95890.22;4993916;28;20085;-60
2022/06/22 00:43:30;;;;;;;6.93;5.27;;;;;;;21.15;60.73;95888.13;4993914;28;20527;-60
2022/06/22 00:45:59;;;;;;;9.73;4.55;;;;;;;21.04;61.10;95883.78;4993892;28;20120;-60
2022/06/22 00:48:31;;;;;;;11.73;4.63;;;;;;;20.96;61.07;95883.66;4993984;28;20054;-60
2022/06/22 00:51:02;;;;;;;8.77;4.60;;;;;;;20.95;61.53;95879.31;4993801;28;20043;-61
2022/06/22 00:53:37;;;;;;;13.82;4.70;;;;;;;20.93;61.17;95879.47;4993709;28;20149;-60
2022/06/22 00:56:19;;;;;;;9.73;4.57;;;;;;;20.98;61.12;95884.34;4993833;28;20050;-60
2022/06/22 00:58:55;;;;;;;6.35;4.38;;;;;;;21.07;60.86;95891.47;4993725;28;20104;-60
2022/06/22 01:01:28;;;;;;;13.60;5.55;;;;;;;21.07;61.01;95888.00;4993762;28;20133;-60
2022/06/22 01:04:06;;;;;;;8.32;4.40;;;;;;;21.16;61.57;95876.50;4993714;28;20052;-60
2022/06/22 01:06:41;;;;;;;6.50;4.28;;;;;;;21.12;61.02;95885.75;4993628;28;20057;-60
2022/06/22 01:09:14;;;;;;;9.00;4.55;;;;;;;21.09;60.99;95883.38;4993835;28;20046;-59
2022/06/22 01:14:46;;;;;;;7.53;4.93;;;;;;;21.26;61.18;95908.41;4993614;28;20062;-60
2022/06/22 01:17:21;;;;;;;8.05;4.40;;;;;;;21.24;61.14;95901.53;4993559;28;20101;-60
2022/06/22 01:19:57;;;;;;;5.57;4.30;;;;;;;21.21;61.24;95908.84;4993618;28;20046;-60
2022/06/22 01:22:39;;;;;;;5.03;3.90;;;;;;;21.23;61.23;95913.16;4993663;28;20124;-60
2022/06/22 01:25:29;;;;;;;8.07;5.07;;;;;;;21.20;61.58;95906.31;4993419;28;20054;-60
2022/06/22 01:28:00;;;;;;;5.30;4.32;;;;;;;21.23;61.25;95916.69;4993538;28;20042;-60
2022/06/22 01:30:30;;;;;;;;;;;;;;;21.25;61.36;95920.00;4993754;28;20051;-60
2022/06/22 01:32:57;;;;;;;13.15;4.40;;;;;;;21.19;61.53;95917.94;4993575;28;19925;-62
2022/06/22 01:35:28;;;;;;;7.68;4.20;;;;;;;21.15;61.44;95916.53;4993358;28;20093;-60
2022/06/22 01:37:55;;;;;;;10.75;4.57;;;;;;;21.12;61.56;95919.44;4995871;28;20054;-60
2022/06/22 01:40:24;;;;;;;8.63;4.80;;;;;;;21.04;61.54;95921.00;4997257;28;20133;-61
2022/06/22 01:42:57;;;;;;;9.50;4.88;;;;;;;21.02;61.92;95928.28;4997222;28;20116;-60
2022/06/22 01:45:34;;;;;;;12.68;4.30;;;;;;;21.09;62.77;95920.59;4997167;28;20050;-60
2022/06/22 01:48:09;;;;;;;6.57;4.78;;;;;;;20.97;62.45;95914.56;4997067;28;20081;-60
2022/06/22 01:50:46;;;;;;;6.25;4.72;;;;;;;20.88;63.16;95912.69;4996904;28;20061;-60
2022/06/22 01:53:20;;;;;;;9.02;4.72;;;;;;;20.72;63.64;95924.72;4997230;28;20461;-60
2022/06/22 01:55:52;;;;;;;10.93;4.80;;;;;;;20.68;63.71;95918.00;4996746;28;20050;-60
2022/06/22 01:58:36;;;;;;;12.68;5.35;;;;;;;20.73;62.91;95910.44;4996856;28;20554;-60
2022/06/22 02:01:13;;;;;;;11.52;4.50;;;;;;;20.81;62.23;95920.41;4996844;28;20105;-60
2022/06/22 02:03:45;;;;;;;11.10;4.97;;;;;;;20.98;61.41;95912.75;4996875;28;20137;-60
2022/06/22 02:09:09;;;;;;;6.38;4.28;;;;;;;21.10;62.23;95913.47;4996800;28;20053;-60
2022/06/22 02:11:43;;;;;;;11.70;4.72;;;;;;;21.05;61.46;95911.22;4996584;28;20046;-60
2022/06/22 02:14:15;;;;;;;15.00;4.82;;;;;;;21.07;61.26;95906.59;4996553;28;20050;-60
2022/06/22 02:16:51;;;;;;;10.20;4.75;;;;;;;21.00;61.69;95905.47;4996529;28;20050;-61
2022/06/22 02:19:20;;;;;;;7.15;4.47;;;;;;;20.98;61.66;95902.94;4996546;28;20089;-60
2022/06/22 02:21:49;;;;;;;8.50;5.15;;;;;;;20.94;61.78;95909.50;4996490;28;20117;-61
2022/06/22 02:24:21;;;;;;;13.40;5.43;;;;;;;20.94;62.03;95907.72;4996484;28;20081;-60
2022/06/22 02:26:52;;;;;;;7.18;4.43;;;;;;;20.89;62.37;95896.59;4996368;28;20435;-61
2022/06/22 02:29:24;;;;;;;8.27;5.00;;;;;;;20.71;62.17;95909.75;4996318;28;20116;-60
2022/06/22 02:31:55;;;;;;;8.95;4.65;;;;;;;20.69;62.46;95909.03;4996208;28;20077;-60
2022/06/22 02:34:22;;;;;;;;;;;;;;;20.63;63.23;95905.13;4996720;28;20526;-60
2022/06/22 02:36:54;;;;;;;8.82;4.68;;;;;;;20.50;63.55;95896.56;4996330;28;19925;-61
2022/06/22 02:39:24;;;;;;;12.98;4.97;;;;;;;20.31;63.50;95896.38;4996349;28;20047;-60
2022/06/22 02:44:39;;;;;;;7.07;4.55;;;;;;;20.16;63.66;95901.22;4996203;28;20408;-60
2022/06/22 02:47:21;;;;;;;9.75;5.13;;;;;;;20.16;64.55;95895.91;4995973;28;20049;-60
2022/06/22 02:49:55;;;;;;;7.57;4.80;;;;;;;20.11;62.63;95907.91;4994902;28;20074;-60
2022/06/22 02:52:25;;;;;;;8.80;4.68;;;;;;;20.19;63.35;95905.41;4995915;28;20050;-60
2022/06/22 02:54:54;;;;;;;9.00;4.77;;;;;;;20.16;62.97;95908.31;4995846;28;20050;-60
2022/06/22 02:57:35;;;;;;;11.18;5.00;;;;;;;20.08;63.73;95907.19;4995938;28;20104;-60
2022/06/22 03:00:03;;;;;;;;;;;;;;;20.16;62.19;95910.97;4996164;28;20109;-60
2022/06/22 03:02:31;;;;;;;10.63;4.78;;;;;;;20.22;62.20;95902.47;4995621;28;20016;-59
2022/06/22 03:05:00;;;;;;;8.23;4.65;;;;;;;20.41;61.16;95900.88;4995531;28;20085;-60
2022/06/22 03:07:30;;;;;;;8.75;4.95;;;;;;;20.63;60.57;95898.97;4995878;28;20077;-60
2022/06/22 03:09:59;;;;;;;8.10;4.75;;;;;;;20.82;59.75;95895.50;4995563;28;20055;-60
2022/06/22 03:12:26;;;;;;;9.88;4.63;;;;;;;20.99;58.99;95901.97;4995453;28;20053;-60
2022/06/22 03:14:58;;;;;;;8.00;4.80;;;;;;;21.16;59.56;95907.59;4995418;28;20050;-60
2022/06/22 03:17:29;;;;;;;7.88;4.90;;;;;;;21.29;58.98;95904.63;4995416;28;20056;-60
2022/06/22 03:20:03;;;;;;;12.48;4.70;;;;;;;21.43;57.63;95914.00;4995454;28;20042;-60
2022/06/22 03:22:33;;;;;;;8.25;5.13;;;;;;;21.61;57.17;95922.06;4995157;28;20105;-60
2022/06/22 03:25:08;;;;;;;9.27;4.78;;;;;;;21.74;57.12;95912.97;4995182;28;20042;-60
2022/06/22 03:27:39;;;;;;;12.48;4.47;;;;;;;21.88;57.22;95909.88;4995235;28;20042;-60
2022/06/22 03:30:14;;;;;;;5.00;4.50;;;;;;;22.01;56.94;95906.06;4994910;28;20527;-60
2022/06/22 03:32:48;;;;;;;7.13;4.40;;;;;;;22.11;56.67;95898.03;4995129;28;20455;-60
2022/06/22 03:35:23;;;;;;;9.57;5.13;;;;;;;22.25;55.97;95910.88;4994940;28;20096;-60
2022/06/22 03:37:57;;;;;;;8.98;4.47;;;;;;;22.55;55.58;95913.38;4994993;28;20047;-60
2022/06/22 03:40:34;;;;;;;6.90;4.45;;;;;;;22.90;55.12;95916.28;4995067;28;20046;-61
2022/06/22 03:43:07;;;;;;;12.23;4.80;;;;;;;23.20;55.30;95903.56;4995036;28;20440;-60
2022/06/22 03:45:40;;;;;;;5.60;4.20;;;;;;;23.45;54.75;95907.28;4994888;28;20126;-60
2022/06/22 03:48:13;;;;;;;8.43;4.57;;;;;;;23.75;55.07;95919.53;4995034;28;20046;-60
2022/06/22 03:50:47;;;;;;;5.25;4.20;;;;;;;23.99;54.30;95910.84;4994847;28;20049;-60
2022/06/22 03:53:21;;;;;;;6.45;4.57;;;;;;;24.19;53.00;95914.13;4997557;28;20077;-60
2022/06/22 03:55:51;;;;;;;7.82;4.47;;;;;;;24.38;53.09;95917.53;4994654;28;20108;-60
2022/06/22 03:58:20;;;;;;;7.45;4.25;;;;;;;24.62;52.53;95915.97;4994729;28;20460;-61
2022/06/22 04:00:49;;;;;;;13.32;4.68;;;;;;;24.65;53.00;95926.34;4994415;28;20539;-60
2022/06/22 04:03:18;;;;;;;9.32;4.47;;;;;;;24.60;53.59;95934.84;4995832;28;20054;-61
2022/06/22 04:05:51;;;;;;;9.25;4.57;;;;;;;24.73;51.82;95926.38;4994952;28;20441;-60
2022/06/22 04:08:24;;;;;;;9.30;4.75;;;;;;;25.13;51.84;95938.38;4994637;28;20046;-60
2022/06/22 04:10:59;;;;;;;6.18;4.50;;;;;;;25.49;52.12;95932.69;4994564;28;20496;-60
2022/06/22 04:13:32;;;;;;;9.10;4.80;;;;;;;25.65;52.35;95936.41;4994428;28;20144;-60
2022/06/22 04:16:03;;;;;;;6.78;4.15;;;;;;;25.74;52.26;95922.84;4994423;28;20550;-60
2022/06/22 04:18:35;;;;;;;8.65;4.45;;;;;;;26.01;51.42;95924.47;4994394;28;20051;-60
2022/06/22 04:21:08;;;;;;;9.35;4.38;;;;;;;26.28;49.83;95915.19;4994382;28;20058;-60
2022/06/22 04:23:40;;;;;;;9.30;4.20;;;;;;;26.61;50.00;95919.63;4994211;28;20046;-61
2022/06/22 04:26:13;;;;;;;8.38;4.38;;;;;;;26.90;48.56;95915.44;4994188;28;20178;-60
2022/06/22 04:28:46;;;;;;;6.68;4.43;;;;;;;27.24;49.63;95921.47;4993897;28;20043;-61
2022/06/22 04:31:18;;;;;;;6.15;4.47;;;;;;;27.41;49.20;95924.00;4994054;28;20048;-60
2022/06/22 04:33:48;;;;;;;8.35;4.20;;;;;;;27.71;47.54;95916.91;4994096;28;20050;-61
2022/06/22 04:36:22;;;;;;;5.13;3.90;;;;;;;28.06;47.72;95926.31;4993967;28;20069;-60
2022/06/22 04:38:55;;;;;;;5.00;4.03;;;;;;;28.38;47.35;95925.16;4993941;28;20082;-61
2022/06/22 04:41:30;;;;;;;11.73;4.85;;;;;;;28.57;46.63;95920.22;4993987;28;20121;-61
2022/06/22 04:43:59;;;;;;;9.93;4.30;;;;;;;28.79;46.95;95930.19;4993876;28;20043;-61
2022/06/22 04:46:31;;;;;;;7.68;4.30;;;;;;;28.98;42.33;95924.22;4993930;28;20050;-61
2022/06/22 04:49:02;;;;;;;6.35;4.03;;;;;;;29.11;43.44;95922.72;4993821;28;20081;-61
2022/06/22 04:51:37;;;;;;;6.78;4.47;;;;;;;29.25;43.65;95929.91;4993774;28;20052;-59
2022/06/22 04:54:14;;;;;;;10.82;4.53;;;;;;;29.31;42.87;95927.47;4993849;28;20477;-61
2022/06/22 04:56:48;;;;;;;7.90;4.00;;;;;;;29.56;42.36;95925.25;4993652;28;20054;-61
2022/06/22 04:59:18;;;;;;;8.45;4.18;;;;;;;29.58;42.62;95933.13;4993878;28;20057;-60
2022/06/22 05:01:51;;;;;;;9.75;4.47;;;;;;;29.71;42.63;95945.88;4993704;28;20137;-61
2022/06/22 05:04:22;;;;;;;13.77;3.88;;;;;;;29.83;40.60;95938.09;4993770;28;20129;-61
2022/06/22 05:06:59;;;;;;;13.57;4.45;;;;;;;29.84;40.08;95931.69;4993683;28;20104;-61
2022/06/22 05:09:31;;;;;;;15.07;4.55;;;;;;;29.79;40.02;95937.66;4993684;28;20072;-61
2022/06/22 05:12:00;;;;;;;7.45;4.00;;;;;;;29.71;40.00;95962.06;4994599;28;20392;-61
2022/06/22 05:14:31;;;;;;;9.95;4.43;;;;;;;29.50;40.37;95961.00;4997645;28;20496;-60
2022/06/22 05:17:02;;;;;;;7.13;4.05;;;;;;;29.38;40.78;95958.00;4997809;28;20058;-60
2022/06/22 05:19:36;;;;;;;10.65;4.28;;;;;;;29.44;40.28;95959.91;4997585;28;20060;-61
2022/06/22 05:22:15;;;;;;;6.25;3.95;;;;;;;29.73;40.67;95960.81;4997700;28;20082;-61
2022/06/22 05:24:45;;;;;;;9.95;4.65;;;;;;;30.05;39.80;95965.84;4997593;28;20142;-61
2022/06/22 05:27:20;;;;;;;7.38;4.30;;;;;;;29.95;38.66;95965.34;4997526;28;20050;-60
2022/06/22 05:29:50;;;;;;;9.90;4.28;;;;;;;30.02;40.35;95956.28;4997622;28;20108;-61
2022/06/22 05:32:21;;;;;;;9.15;3.70;;;;;;;29.91;40.20;95964.09;4997357;28;20046;-60
2022/06/22 05:34:52;;;;;;;7.68;3.88;;;;;;;29.94;40.04;95961.81;4997273;28;20052;-61
2022/06/22 05:37:27;;;;;;;17.77;4.68;;;;;;;30.41;40.00;95965.88;4997308;28;20054;-62
2022/06/22 05:39:56;;;;;;;9.73;4.05;;;;;;;30.81;38.95;95949.09;4997270;28;20050;-60
2022/06/22 05:42:25;;;;;;;10.63;4.43;;;;;;;30.93;38.96;95941.25;4997200;28;20135;-62
2022/06/22 05:44:53;;;;;;;8.57;4.10;;;;;;;31.08;37.83;95950.03;4997382;28;20066;-60
2022/06/22 05:47:27;;;;;;;10.75;4.43;;;;;;;31.17;39.19;95956.06;4997361;28;20056;-61
2022/06/22 05:49:59;;;;;;;8.25;3.75;;;;;;;31.35;36.84;95963.63;4997528;28;20046;-60
2022/06/22 05:52:33;;;;;;;7.45;4.00;;;;;;;31.43;38.15;95970.72;4997939;28;20050;-60
2022/06/22 05:55:06;;;;;;;7.40;3.97;;;;;;;31.45;38.88;95968.63;4998562;28;20144;-61
2022/06/22 05:57:40;;;;;;;5.53;4.22;;;;;;;31.59;38.35;95958.69;4998080;28;20130;-60
2022/06/22 06:00:14;;;;;;;10.38;4.18;;;;;;;31.37;37.38;95963.41;4997662;28;20046;-61
2022/06/22 06:02:48;;;;;;;7.70;3.95;;;;;;;31.65;37.46;95965.97;4997452;28;20100;-60
2022/06/22 06:05:21;;;;;;;6.32;3.83;;;;;;;32.01;38.47;95958.50;4997468;28;20488;-61
2022/06/22 06:07:53;;;;;;;11.82;4.20;;;;;;;31.97;37.13;95954.56;4997557;28;20057;-61
2022/06/22 06:10:24;;;;;;;11.00;4.80;;;;;;;31.82;35.49;95953.91;4997710;28;20069;-62
2022/06/22 06:12:57;;;;;;;9.05;4.53;;;;;;;31.78;36.03;95962.41;4997332;28;20047;-59
2022/06/22 06:15:25;;;;;;;10.50;4.55;;;;;;;31.93;35.61;95980.31;4997166;28;20051;-61
2022/06/22 06:17:57;;;;;;;10.48;4.20;;;;;;;31.64;36.48;95972.38;4997370;28;20071;-60
2022/06/22 06:20:28;;;;;;;9.07;4.72;;;;;;;31.81;36.83;95982.78;4996803;28;20050;-60
2022/06/22 06:23:02;;;;;;;17.25;4.65;;;;;;;32.09;37.01;95981.81;4997201;28;20058;-60
2022/06/22 06:28:27;;;;;;;;;;;;;;;32.27;35.72;95970.31;5000078;28;20061;-61
2022/06/22 06:31:01;;;;;;;7.07;4.63;;;;;;;32.43;36.41;95970.06;4998395;28;19922;-59
2022/06/22 06:33:34;;;;;;;11.52;4.53;;;;;;;32.62;34.86;95974.66;4997382;28;20081;-60
2022/06/22 06:36:08;;;;;;;12.10;4.43;;;;;;;32.52;34.58;95974.25;4997032;28;20050;-60
2022/06/22 06:38:39;;;;;;;5.35;4.40;;;;;;;32.24;34.81;95978.84;4996555;28;20420;-61
2022/06/22 06:41:12;;;;;;;9.60;5.15;;;;;;;32.01;35.22;95972.03;4996412;28;20052;-61
2022/06/22 06:43:44;;;;;;;9.98;4.38;;;;;;;31.85;35.58;95977.81;4997049;28;20058;-62
2022/06/22 06:46:16;;;;;;;11.30;5.07;;;;;;;31.28;35.14;95987.88;4996466;28;20062;-60
2022/06/22 06:48:54;;;;;;;6.53;4.38;;;;;;;31.23;36.87;95981.41;4997057;28;20107;-61
2022/06/22 06:51:23;;;;;;;7.80;4.55;;;;;;;31.37;36.74;95972.38;4996108;28;20416;-61
2022/06/22 06:53:57;;;;;;;12.23;5.40;;;;;;;31.47;35.41;95976.53;4996390;28;20051;-61
2022/06/22 06:56:30;;;;;;;10.65;4.90;;;;;;;31.48;36.48;95975.50;4995990;28;20086;-60
2022/06/22 06:58:59;;;;;;;9.48;4.50;;;;;;;31.55;36.20;95975.50;4996521;28;20097;-60
2022/06/22 07:01:29;;;;;;;10.95;4.90;;;;;;;31.86;36.86;95987.59;4995887;28;20050;-61
2022/06/22 07:04:02;;;;;;;7.90;4.68;;;;;;;32.17;36.48;95993.44;4996050;28;20078;-60
2022/06/22 07:06:31;;;;;;;13.57;5.68;;;;;;;32.00;36.34;95981.16;4996123;28;20046;-61
2022/06/22 07:09:08;;;;;;;9.63;5.07;;;;;;;32.11;34.44;95979.69;4995842;28;20065;-61
2022/06/22 07:11:45;;;;;;;8.50;5.28;;;;;;;32.05;34.92;95980.53;4995651;28;20054;-60
2022/06/22 07:14:20;;;;;;;8.13;5.45;;;;;;;31.91;35.79;95968.88;4995588;28;20057;-61
2022/06/22 07:16:48;;;;;;;10.00;5.30;;;;;;;32.24;34.68;95972.63;4995962;28;20093;-60
2022/06/22 07:19:22;;;;;;;11.60;5.50;;;;;;;32.45;34.80;95966.16;4995650;28;20130;-61
2022/06/22 07:21:56;;;;;;;11.20;5.72;;;;;;;32.68;34.82;95980.25;4995697;28;20049;-61
2022/06/22 07:24:31;;;;;;;9.82;5.47;;;;;;;32.56;34.28;95971.97;4995936;28;20073;-61
2022/06/22 07:27:04;;;;;;;8.68;5.30;;;;;;;32.58;34.38;95959.88;4995349;28;20054;-60
2022/06/22 07:29:39;;;;;;;7.93;5.30;;;;;;;32.86;33.16;95961.44;4995311;28;20050;-60
2022/06/22 07:32:16;;;;;;;7.13;5.60;;;;;;;33.10;33.37;95966.34;4995200;28;20042;-60
2022/06/22 07:34:50;;;;;;;8.82;4.97;;;;;;;33.38;33.62;95957.88;4994979;28;20054;-61
2022/06/22 07:37:25;;;;;;;9.25;4.95;;;;;;;33.76;34.05;95966.19;4995346;28;20050;-60
2022/06/22 07:40:07;;;;;;;11.43;5.82;;;;;;;33.80;33.23;95961.16;4996654;28;20046;-60
2022/06/22 07:42:34;;;;;;;9.07;5.25;;;;;;;33.70;33.18;95958.94;4995170;28;20050;-61
2022/06/22 07:45:02;;;;;;;14.13;6.13;;;;;;;33.69;33.95;95958.13;4995079;28;20484;-61
2022/06/22 07:47:36;;;;;;;11.90;7.03;;;;;;;33.82;34.63;95978.88;4994933;28;20089;-61
2022/06/22 07:50:12;;;;;;;12.40;7.13;;;;;;;34.24;34.11;95967.47;4994893;28;20096;-60
2022/06/22 07:52:45;;;;;;;11.40;6.50;;;;;;;34.58;33.70;95971.75;4994844;28;20057;-61
2022/06/22 07:55:32;;;;;;;12.45;6.40;;;;;;;34.57;33.29;95979.03;4994830;28;20047;-61
2022/06/22 07:58:20;;;;;;;12.30;6.15;;;;;;;34.58;32.48;95982.59;4994614;28;20483;-62
2022/06/22 08:00:52;;;;;;;9.75;7.05;;;;;;;34.84;31.74;95983.34;4994984;28;20129;-61
2022/06/22 08:03:29;;;;;;;16.35;7.95;;;;;;;34.75;32.50;95971.97;4994642;28;20069;-61
2022/06/22 08:06:01;;;;;;;10.98;6.82;;;;;;;34.70;33.13;95975.38;4994565;28;20046;-62
2022/06/22 08:08:34;;;;;;;9.55;6.90;;;;;;;34.66;33.85;95972.28;4994690;28;20492;-60
2022/06/22 08:11:08;;;;;;;10.55;6.35;;;;;;;34.36;32.77;95958.59;4994471;28;20069;-61
2022/06/22 08:13:41;;;;;;;7.38;6.03;;;;;;;34.04;34.48;95968.47;4994512;28;20055;-60
2022/06/22 08:16:13;;;;;;;15.35;6.93;;;;;;;33.94;31.90;95964.56;4994277;28;20054;-61
2022/06/22 08:18:42;;;;;;;13.73;6.43;;;;;;;33.88;32.95;95958.16;4994371;28;20077;-61
2022/06/22 08:21:14;;;;;;;10.98;5.60;;;;;;;34.14;33.10;95968.00;4994268;28;20050;-60
2022/06/22 08:23:43;;;;;;;10.98;6.65;;;;;;;34.22;31.97;95977.72;4994291;28;20081;-61
2022/06/22 08:26:19;;;;;;;12.75;6.43;;;;;;;34.04;31.85;95983.91;4994233;28;20113;-60
2022/06/22 08:28:48;;;;;;;11.85;6.35;;;;;;;33.51;32.58;95989.50;4993864;28;20101;-61
2022/06/22 08:31:15;;;;;;;9.73;6.57;;;;;;;33.08;33.48;95990.94;4994344;28;20508;-60
2022/06/22 08:33:47;;;;;;;9.77;7.10;;;;;;;32.72;34.29;96003.16;4994173;28;20408;-61
2022/06/22 08:36:20;;;;;;;8.95;5.95;;;;;;;32.57;32.82;95987.16;4994184;28;20046;-60
2022/06/22 08:38:53;;;;;;;12.40;5.68;;;;;;;32.51;34.07;95988.84;4993953;28;20046;-61
2022/06/22 08:41:39;;;;;;;15.90;6.32;;;;;;;32.01;33.52;95995.50;4994042;28;20050;-61
2022/06/22 08:44:17;;;;;;;13.27;6.72;;;;;;;31.79;34.91;95987.59;4993810;28;20054;-59
2022/06/22 08:47:24;;;;;;;15.15;7.13;;;;;;;32.13;35.25;95990.31;4993155;28;20124;-60
2022/06/22 08:50:13;;;;;;;12.30;7.57;;;;;;;32.33;34.89;95984.06;4994096;28;20050;-60
2022/06/22 08:52:59;;;;;;;10.27;7.50;;;;;;;32.72;35.08;95986.91;4993976;28;20046;-60
2022/06/22 08:55:48;;;;;;;12.88;9.32;;;;;;;32.80;34.33;95985.84;4993902;28;20492;-60
2022/06/22 08:58:37;;;;;;;20.07;9.07;;;;;;;32.62;34.94;95973.81;4993862;28;20054;-60
2022/06/22 09:01:16;;;;;;;15.18;9.65;;;;;;;32.43;34.60;95962.81;4994035;28;20081;-60
2022/06/22 09:04:00;;;;;;;13.23;9.63;;;;;;;32.47;35.93;95958.63;4993730;28;20050;-60
2022/06/22 09:07:10;;;;;;;16.25;10.07;;;;;;;32.97;36.04;95961.81;4993843;28;20052;-60
2022/06/22 09:09:58;;;;;;;20.33;11.10;;;;;;;33.01;34.15;95953.06;4915134;29;20048;-61
2022/06/22 09:12:35;;;;;;;14.52;10.93;;;;;;;32.92;35.72;95958.94;4894701;29;20098;-60
2022/06/22 09:15:23;;;;;;;14.70;10.88;;;;;;;32.78;34.40;95953.56;4966600;28;20488;-61
2022/06/22 09:18:29;;;;;;;12.15;10.70;;;;;;;32.83;34.90;95952.94;4993618;28;20109;-60
2022/06/22 09:21:08;;;;;;;22.88;11.52;;;;;;;32.81;35.76;95955.00;4985524;28;20108;-60
2022/06/22 09:23:41;;;;;;;15.63;11.13;;;;;;;32.98;34.21;95955.34;4993615;28;20428;-59
2022/06/22 09:26:17;;;;;;;19.58;12.65;;;;;;;32.99;34.72;95957.84;4993508;28;20086;-60
2022/06/22 09:28:49;;;;;;;17.08;12.43;;;;;;;33.05;35.31;95948.06;4993374;28;20080;-61
2022/06/22 09:32:01;;;;;;;20.35;12.50;;;;;;;33.14;34.87;95948.66;4993565;28;20436;-60
2022/06/22 09:34:58;;;;;;;16.23;11.73;;;;;;;33.12;35.00;95945.31;4993668;28;20053;-61
2022/06/22 09:37:41;;;;;;;20.00;13.43;;;;;;;33.35;34.30;95950.16;4992958;28;20077;-60
2022/06/22 09:40:32;;;;;;;17.65;12.75;;;;;;;33.26;34.38;95952.31;4993735;28;20042;-60
2022/06/22 09:43:22;;;;;;;21.77;13.73;;;;;;;33.25;33.96;95947.94;4990560;28;20523;-60
2022/06/22 09:45:56;;;;;;;;;;;;;;;33.38;33.72;95948.94;4993774;28;20496;-60
2022/06/22 09:48:47;;;;;;;14.35;12.43;;;;;;;33.62;33.08;95954.63;4993389;28;19960;-60
2022/06/22 09:51:28;;;;;;;22.05;12.27;;;;;;;33.79;32.98;95944.06;4993254;28;20054;-60
2022/06/22 09:57:48;;;;;;;21.35;11.80;;;;;;;33.72;32.33;95957.69;4985667;28;20053;-60
2022/06/22 10:00:19;;;;;;;18.50;12.88;;;;;;;33.96;32.09;95943.50;4996931;28;20051;-60
2022/06/22 10:03:11;;;;;;;16.52;11.20;;;;;;;34.13;32.20;95952.75;4996865;28;20047;-61
2022/06/22 10:06:20;;;;;;;18.73;12.02;;;;;;;34.45;31.68;95945.56;4996875;28;20042;-60
2022/06/22 10:09:09;;;;;;;15.55;11.32;;;;;;;34.57;31.81;95946.47;4996881;28;20137;-60
2022/06/22 10:11:45;;;;;;;12.93;10.33;;;;;;;34.56;30.91;95949.41;4996731;28;20113;-60
2022/06/22 10:14:38;;;;;;;16.20;10.65;;;;;;;34.13;31.16;95941.09;4996674;28;20762;-60
2022/06/22 10:17:21;;;;;;;14.57;10.30;;;;;;;33.86;32.17;95947.53;4996623;28;20085;-60
2022/06/22 10:20:01;;;;;;;16.85;10.70;;;;;;;33.81;33.43;95946.56;4995501;28;20500;-61
2022/06/22 10:23:01;;;;;;;19.42;11.70;;;;;;;33.68;34.04;95953.75;4996534;28;20050;-60
2022/06/22 10:25:53;;;;;;;13.15;9.43;;;;;;;33.70;32.91;95951.63;4996627;28;20054;-59
2022/06/22 10:29:03;;;;;;;13.68;10.23;;;;;;;33.85;33.87;95943.19;4996361;28;20128;-61
2022/06/22 10:31:41;;;;;;;11.63;8.93;;;;;;;33.98;33.51;95946.84;4975036;28;20473;-59
2022/06/22 10:34:29;;;;;;;10.63;8.15;;;;;;;34.00;32.25;95945.56;4994904;28;20047;-60
2022/06/22 10:37:27;;;;;;;10.00;8.02;;;;;;;33.86;32.33;95947.53;4996210;28;20046;-61
2022/06/22 10:40:11;;;;;;;13.82;7.13;;;;;;;32.97;33.56;95949.13;4996016;28;20050;-60
2022/06/22 10:45:45;;;;;;;11.20;6.78;;;;;;;32.43;35.68;95970.91;4996300;28;20405;-61
2022/06/22 10:48:58;;;;;;;11.82;6.53;;;;;;;32.27;35.73;95964.91;4995936;28;20092;-60
2022/06/22 10:51:55;;;;;;;19.45;7.15;;;;;;;31.86;37.12;95966.78;4996213;28;20479;-60
2022/06/22 10:54:51;;;;;;;12.13;7.43;;;;;;;31.62;36.20;95973.63;4995994;28;20081;-59
2022/06/22 10:57:38;;;;;;;9.75;7.13;;;;;;;31.30;36.43;95965.25;4996073;28;20218;-60
2022/06/22 11:00:15;;;;;;;10.30;6.80;;;;;;;30.99;37.22;95979.06;4995935;28;20054;-61
2022/06/22 11:03:15;;;;;;;13.38;6.95;;;;;;;31.05;38.41;95979.28;4996115;28;20046;-59
2022/06/22 11:05:57;;;;;;;16.90;7.45;;;;;;;30.87;39.21;95976.13;4996045;28;20050;-60
2022/06/22 11:08:58;;;;;;;10.52;7.03;;;;;;;30.61;39.44;95977.63;4995641;28;20116;-60
2022/06/22 11:11:43;;;;;;;19.45;7.45;;;;;;;30.54;39.18;95979.44;4978979;28;20046;-60
2022/06/22 11:14:56;;;;;;;15.02;7.53;;;;;;;30.59;38.58;95968.06;4995701;28;20042;-59
2022/06/22 11:17:51;;;;;;;12.00;7.35;;;;;;;30.76;39.29;95960.50;4995496;28;20054;-60
2022/06/22 11:20:49;;;;;;;14.20;7.28;;;;;;;31.15;40.81;95958.97;4992350;28;20073;-60
2022/06/22 11:23:26;;;;;;;13.95;8.02;;;;;;;31.18;36.65;95965.81;4995284;28;20061;-60
2022/06/22 11:32:39;;;;;;;14.25;7.88;;;;;;;30.76;38.75;95949.72;4955095;28;20500;-61
2022/06/22 11:35:50;;;;;;;16.73;8.10;;;;;;;30.62;39.62;95944.22;4995242;28;20051;-61
2022/06/22 11:38:44;;;;;;;10.90;7.50;;;;;;;29.99;40.18;95939.66;4995031;28;20307;-59
2022/06/22 11:41:32;;;;;;;11.35;7.97;;;;;;;29.94;41.83;95939.41;4995172;28;20104;-60
2022/06/22 11:44:16;;;;;;;10.77;8.07;;;;;;;29.98;40.77;95930.75;4994978;28;20061;-59
2022/06/22 11:46:49;;;;;;;11.98;9.07;;;;;;;30.05;41.39;95927.25;4995047;28;20092;-60
2022/06/22 11:49:40;;;;;;;11.75;8.23;;;;;;;29.84;40.39;95921.75;4994841;28;20445;-59
2022/06/22 11:52:45;;;;;;;12.70;8.38;;;;;;;29.78;42.18;95917.13;4995018;28;20485;-59
2022/06/22 11:55:36;;;;;;;14.30;8.60;;;;;;;29.78;40.73;95911.75;4994990;28;20050;-60
2022/06/22 11:58:41;;;;;;;16.52;7.85;;;;;;;29.70;41.48;95920.78;4993451;28;20050;-59
2022/06/22 12:01:37;;;;;;;12.18;8.50;;;;;;;29.66;40.72;95908.75;4994731;28;20046;-60
2022/06/22 12:04:42;;;;;;;14.55;7.97;;;;;;;29.70;40.74;95917.25;4995010;28;20101;-60
2022/06/22 12:07:47;;;;;;;12.30;8.93;;;;;;;30.11;41.46;95913.00;4994691;28;20050;-60
2022/06/22 12:10:39;;;;;;;21.83;8.52;;;;;;;30.26;40.44;95913.75;4994584;28;20047;-60
2022/06/22 12:13:27;;;;;;;15.80;9.30;;;;;;;30.48;41.11;95902.88;4993699;28;20054;-60
2022/06/22 12:16:05;;;;;;;10.00;7.93;;;;;;;30.77;39.23;95902.81;4994503;28;20097;-61
2022/06/22 12:18:49;;;;;;;10.52;9.07;;;;;;;30.91;39.59;95900.16;4994413;28;20460;-61
2022/06/22 12:21:36;;;;;;;15.30;9.57;;;;;;;31.26;39.11;95908.94;4994298;28;20125;-60
2022/06/22 12:24:09;;;;;;;14.18;9.15;;;;;;;31.51;38.72;95900.28;4994303;28;20404;-61
2022/06/22 12:26:45;;;;;;;14.57;9.43;;;;;;;31.75;38.30;95897.13;4994323;28;20058;-61
2022/06/22 12:29:42;;;;;;;13.15;9.05;;;;;;;31.78;38.71;95902.97;4993860;28;20086;-61
2022/06/22 12:32:15;;;;;;;15.73;9.10;;;;;;;31.65;37.30;95898.41;4994237;28;20054;-60
2022/06/22 12:34:50;;;;;;;13.90;9.68;;;;;;;31.24;38.70;95894.00;4994192;28;20050;-61
2022/06/22 12:37:27;;;;;;;13.57;9.43;;;;;;;31.48;38.30;95905.28;4994408;28;20054;-61
2022/06/22 12:39:59;;;;;;;12.18;10.13;;;;;;;31.78;37.48;95902.13;4994142;28;20460;-61
2022/06/22 12:42:55;;;;;;;13.40;8.98;;;;;;;31.90;37.60;95905.03;4994027;28;20085;-59